Watkins, IA (52354)

4:13 PM CST on December 21, 2014 (GMT -0600)
South West Btown | Change Station
CLOSE
Current Station
Personal Weather Station
Location: Blairstown, IA
Elevation: 866 ft
Nearby Weather Stations

Elev 866 ft 41.91 °N, 92.09 °W | Updated 34 seconds ago

Overcast
Overcast
39.7 °F
Feels Like 35 °F
N
7.4
Wind Variable Wind from South
Gusts 18.0 mph

Today
High -- | Low -- °F
--% Chance of Precip.
Yesterday
High -- | Low -- °F
Precip. -- in
7:32 AM 4:40 PM
Waning Crescent, 0% visible
Pressure 29.90 in
Visibility 8.0 miles
Clouds Mostly Cloudy 1400 ft
Overcast 3200 ft
Windchill 35 °F
Dew Point 37 °F
Humidity 90%
Rainfall 0.00 in
Snow Depth Not available.
UV 0 out of 12
Pollen .10 out of 12
Air Quality Not available.
Flu Activity Not available.
METAR KCID 212152Z 16012G23KT 8SM BKN014 OVC032 04/02 A2988 RMK AO2 SLP125 T00390022 $

More Conditions Fewer Conditions

Pressure 29.90 in
Visibility 8.0 miles
Clouds Mostly Cloudy 1400 ft
Overcast 3200 ft
Windchill 35 °F
Dew Point 37 °F
Humidity 90%
Rainfall 0.00 in
Snow Depth Not available.
UV 0 out of 12
Pollen .10 out of 12
Air Quality Not available.
Flu Activity Not available.
METAR KCID 212152Z 16012G23KT 8SM BKN014 OVC032 04/02 A2988 RMK AO2 SLP125 T00390022 $

More Conditions Fewer Conditions

10-Day Weather Forecast

Almanac

Astronomy

Dec. 21, 2014 Rise Set
Actual Time
Civil Twilight
Nautical Twilight
Astronomical Twilight
Moon
Length of Visible Light
Length of Day
Tomorrow will be .
, % of the Moon is Illuminated

Today's Extremes

State Highs State Lows

Community

WunderPhotos

Upload Photos

1,779,498 photos uploaded!

WunderBlogs® & News

Nearby

Air Quality

  Air Quality AQ Index Pollutant
Not available.

Snow Depth

Station Depth Elevation

Earthquake Activity

City Distance Mag. Time & Date
Minimum magnitude displayed is 2.5.

Coastal Water Temperatures

Place Temperature

Nearby Weather Stations